Cove Fort, Utah
Current Conditions -  °F | °C
As of 5:52 AM on Saturday 25 Oct 2014 (Local Time) from KMLF Reporting Station
Clear Clear  
Wind Chill: 33°   Ceiling: Unl
Heat Index: 39°   Visibility: 10mi
Dew Point: 28°   Wind: 8mph
Humidity: 65%   Direction: 150°SSE
Pressure: 30.16"   Gusts: NA
Location:  38.344°N, 112.579°W
Report Text: KMLF 251152Z AUTO 15007KT 10SM CLR 04/M02 A3016 RMK AO2 SLP173 T00391022 10144 20039 56005 TSNO
Loading
Personal Weather Stations






























Interactive Weather Map
Tropical Storm Tracking
New forecast layout! Learn more

10-Day Weather Forecast

Advertisements
Track Severe Weather on mobile